Terminal Aerodrome Forecast
Issued by NWS Pocatello, ID

Home | Current Version | Previous Version | Text Only | Print | Product List | Glossary On
Versions: 1 2 3 4 5 6 7 8 9 10 11 12 13 14 15
000
FTUS45 KPIH 211100
TAFIDA
TAF
KIDA 211120Z 2112/2212 VRB06KT P6SM FEW120 BKN250
     FM212000 22008KT P6SM -SHRA VCTS SCT090 BKN120CB
     FM220300 VRB06KT P6SM -SHRA VCTS SCT040 BKN120CB=

USA.gov is the U.S. government's official web portal to all federal, state and local government web resources and services.